Time;durP1;ratioP1;P1;durP2;ratioP2;P2;SDS_P1;SDS_P2;PMS_P1;PMS_P2;Temp;Humidity;BMP_temperature;BMP_pressure;BME280_temperature;BME280_humidity;BME280_pressure;Samples;Min_cycle;Max_cycle;Signal;HPM_P1;HPM_P2
2022/10/06 00:00:04;;;;;;;0.00;0.00;;;15.20;99.90;;;;;;5047037;28;20260;-83
2022/10/06 00:02:35;;;;;;;0.00;0.00;;;15.10;99.90;;;;;;5040251;28;20785;-80
2022/10/06 00:05:03;;;;;;;0.00;0.00;;;15.10;99.90;;;;;;5035395;28;20203;-79
2022/10/06 00:07:32;;;;;;;0.00;0.00;;;15.10;99.90;;;;;;5038670;28;20203;-78
2022/10/06 00:10:00;;;;;;;0.00;0.00;;;15.10;99.90;;;;;;5032022;28;20215;-78
2022/10/06 00:12:28;;;;;;;0.00;0.00;;;15.10;99.90;;;;;;5036831;28;20223;-79
2022/10/06 00:14:56;;;;;;;0.00;0.00;;;15.10;99.90;;;;;;5045404;28;20203;-79
2022/10/06 00:17:24;;;;;;;0.00;0.00;;;15.10;99.90;;;;;;5036708;28;20260;-79
2022/10/06 00:19:52;;;;;;;0.10;0.10;;;15.10;99.90;;;;;;5033652;28;20254;-79
2022/10/06 00:22:20;;;;;;;0.00;0.00;;;15.00;99.90;;;;;;5033164;28;20198;-79
2022/10/06 00:24:51;;;;;;;0.00;0.00;;;14.90;99.90;;;;;;5033752;28;20199;-79
2022/10/06 00:27:19;;;;;;;0.00;0.00;;;14.70;99.90;;;;;;5034643;28;20716;-79
2022/10/06 00:29:47;;;;;;;0.00;0.00;;;14.70;99.90;;;;;;5035051;28;20211;-81
2022/10/06 00:32:15;;;;;;;0.03;0.03;;;14.80;99.90;;;;;;5034373;28;20763;-79
2022/10/06 00:34:43;;;;;;;0.00;0.00;;;14.70;99.90;;;;;;5042642;28;20209;-79
2022/10/06 00:37:11;;;;;;;0.00;0.00;;;14.70;99.90;;;;;;5034545;28;20206;-79
2022/10/06 00:39:39;;;;;;;0.00;0.00;;;14.60;99.90;;;;;;5033371;28;20223;-79
2022/10/06 00:42:26;;;;;;;0.00;0.00;;;14.70;99.90;;;;;;5034370;28;20202;-78
2022/10/06 00:44:55;;;;;;;0.00;0.00;;;14.60;99.90;;;;;;5036540;28;20245;-79
2022/10/06 00:47:24;;;;;;;0.00;0.00;;;14.60;99.90;;;;;;5034717;28;20203;-79
2022/10/06 00:49:55;;;;;;;0.00;0.00;;;14.50;99.90;;;;;;5033548;28;20222;-79
2022/10/06 00:52:26;;;;;;;0.05;0.05;;;14.50;99.90;;;;;;5032053;28;20714;-76
2022/10/06 00:54:54;;;;;;;0.00;0.00;;;14.50;99.90;;;;;;5045165;28;20210;-76
2022/10/06 00:57:27;;;;;;;0.00;0.00;;;14.50;99.90;;;;;;5032790;28;20195;-76
2022/10/06 00:59:58;;;;;;;0.05;0.05;;;14.50;99.90;;;;;;5048693;28;20566;-76
2022/10/06 01:02:30;;;;;;;0.00;0.00;;;14.50;99.90;;;;;;5050636;28;20206;-79
2022/10/06 01:05:02;;;;;;;0.00;0.00;;;14.50;99.90;;;;;;5029113;28;20203;-80
2022/10/06 01:07:31;;;;;;;0.00;0.00;;;14.40;99.90;;;;;;5036601;28;20222;-80
2022/10/06 01:09:59;;;;;;;0.10;0.10;;;14.40;99.90;;;;;;5017082;28;20717;-82
2022/10/06 01:12:30;;;;;;;0.00;0.00;;;14.40;99.90;;;;;;5013330;28;21037;-79
2022/10/06 01:14:58;;;;;;;0.00;0.00;;;14.40;99.90;;;;;;5028944;28;20207;-79
2022/10/06 01:17:34;;;;;;;0.00;0.00;;;14.30;99.90;;;;;;5033273;28;20191;-79
2022/10/06 01:20:07;;;;;;;0.00;0.00;;;14.30;99.90;;;;;;5053120;28;20254;-79
2022/10/06 01:22:39;;;;;;;0.00;0.00;;;14.30;99.90;;;;;;5033438;28;20621;-79
2022/10/06 01:25:10;;;;;;;0.00;0.00;;;14.20;99.90;;;;;;5035200;28;20209;-83
2022/10/06 01:27:40;;;;;;;0.00;0.00;;;14.10;99.90;;;;;;5049506;28;20233;-78
2022/10/06 01:30:16;;;;;;;0.00;0.00;;;14.10;99.90;;;;;;5052113;28;20210;-78
2022/10/06 01:32:44;;;;;;;0.00;0.00;;;14.10;99.90;;;;;;5035770;28;20223;-79
2022/10/06 01:35:12;;;;;;;0.10;0.10;;;14.20;99.90;;;;;;5022178;28;20191;-77
2022/10/06 01:37:41;;;;;;;0.00;0.00;;;14.20;99.90;;;;;;5031725;28;20249;-77
2022/10/06 01:40:10;;;;;;;0.10;0.10;;;14.20;99.90;;;;;;5032210;28;20304;-78
2022/10/06 01:42:38;;;;;;;0.00;0.00;;;14.10;99.90;;;;;;5031471;28;20214;-78
2022/10/06 01:45:08;;;;;;;0.00;0.00;;;14.10;99.90;;;;;;5032528;28;20199;-77
2022/10/06 01:47:36;;;;;;;0.00;0.00;;;14.00;99.90;;;;;;5035421;28;20609;-79
2022/10/06 01:50:05;;;;;;;0.00;0.00;;;14.10;99.90;;;;;;5035458;28;20219;-80
2022/10/06 01:52:34;;;;;;;0.00;0.00;;;14.00;99.90;;;;;;5032430;28;20230;-79
2022/10/06 01:55:04;;;;;;;0.00;0.00;;;14.00;99.90;;;;;;5036621;28;20261;-80
2022/10/06 01:57:38;;;;;;;0.10;0.10;;;14.10;99.90;;;;;;5039894;28;20203;-82
2022/10/06 02:00:08;;;;;;;0.08;0.08;;;14.10;99.90;;;;;;5036178;28;20233;-79
2022/10/06 02:02:39;;;;;;;0.00;0.00;;;14.10;99.90;;;;;;5039343;28;20221;-78
2022/10/06 02:05:08;;;;;;;0.00;0.00;;;14.10;99.90;;;;;;5056056;28;20633;-79
2022/10/06 02:07:39;;;;;;;0.00;0.00;;;14.10;99.90;;;;;;5041568;28;20222;-78
2022/10/06 02:10:09;;;;;;;0.00;0.00;;;14.10;99.90;;;;;;5036777;28;20234;-80
2022/10/06 02:12:38;;;;;;;0.00;0.00;;;14.20;99.90;;;;;;5037111;28;20245;-80
2022/10/06 02:15:09;;;;;;;0.00;0.00;;;14.20;99.90;;;;;;5034360;28;20213;-80
2022/10/06 02:17:37;;;;;;;0.00;0.00;;;14.20;99.90;;;;;;5032977;28;20577;-78
2022/10/06 02:20:06;;;;;;;0.00;0.00;;;14.20;99.90;;;;;;5029842;28;20219;-78
2022/10/06 02:22:38;;;;;;;0.00;0.00;;;14.20;99.90;;;;;;5032013;28;20191;-77
2022/10/06 02:25:07;;;;;;;0.00;0.00;;;14.20;99.90;;;;;;5043095;28;20227;-77
2022/10/06 02:27:38;;;;;;;0.00;0.00;;;14.20;99.90;;;;;;5029984;28;20213;-77
2022/10/06 02:30:09;;;;;;;0.00;0.00;;;14.20;99.90;;;;;;5029922;28;20649;-77
2022/10/06 02:32:38;;;;;;;0.10;0.10;;;14.20;99.90;;;;;;5030160;28;20306;-78
2022/10/06 02:35:10;;;;;;;0.00;0.00;;;14.20;99.90;;;;;;5033257;28;20207;-77
2022/10/06 02:37:38;;;;;;;0.00;0.00;;;14.10;99.90;;;;;;5043904;28;20577;-78
2022/10/06 02:40:07;;;;;;;0.00;0.00;;;14.10;99.90;;;;;;5030317;28;20223;-77
2022/10/06 02:42:38;;;;;;;0.00;0.00;;;14.10;99.90;;;;;;5031093;28;20650;-77
2022/10/06 02:45:08;;;;;;;0.00;0.00;;;14.10;99.90;;;;;;5030666;28;20229;-78
2022/10/06 02:47:36;;;;;;;0.00;0.00;;;14.10;99.90;;;;;;5032332;28;20302;-77
2022/10/06 02:50:07;;;;;;;0.00;0.00;;;14.00;99.90;;;;;;5031797;28;20210;-77
2022/10/06 02:52:39;;;;;;;0.00;0.00;;;13.90;99.90;;;;;;5030464;28;20230;-77
2022/10/06 02:55:09;;;;;;;0.00;0.00;;;13.80;99.90;;;;;;5029573;28;20231;-80
2022/10/06 02:57:39;;;;;;;0.00;0.00;;;13.70;99.90;;;;;;5035073;28;20248;-78
2022/10/06 03:00:10;;;;;;;0.00;0.00;;;13.70;99.90;;;;;;5038989;28;20238;-77
2022/10/06 03:02:38;;;;;;;0.00;0.00;;;13.80;99.90;;;;;;5017572;28;20199;-78
2022/10/06 03:05:06;;;;;;;0.00;0.00;;;13.80;99.90;;;;;;5031804;28;20201;-78
2022/10/06 03:07:34;;;;;;;0.00;0.00;;;13.80;99.90;;;;;;5033090;28;20232;-79
2022/10/06 03:10:02;;;;;;;0.00;0.00;;;13.80;99.90;;;;;;5028653;28;20230;-78
2022/10/06 03:12:32;;;;;;;0.00;0.00;;;13.80;99.90;;;;;;5031206;28;20250;-80
2022/10/06 03:15:02;;;;;;;0.00;0.00;;;13.90;99.90;;;;;;5036331;28;20765;-79
2022/10/06 03:17:30;;;;;;;0.00;0.00;;;13.90;99.90;;;;;;5064553;28;20213;-79
2022/10/06 03:19:59;;;;;;;0.00;0.00;;;13.90;99.90;;;;;;5026179;28;20227;-79
2022/10/06 03:22:27;;;;;;;0.00;0.00;;;14.00;99.90;;;;;;5013932;28;20265;-79
2022/10/06 03:24:57;;;;;;;0.00;0.00;;;14.00;99.90;;;;;;5018955;28;20285;-78
2022/10/06 03:27:26;;;;;;;0.00;0.00;;;14.00;99.90;;;;;;5034017;28;20198;-79
2022/10/06 03:29:59;;;;;;;0.00;0.00;;;14.00;99.90;;;;;;5022665;28;20277;-80
2022/10/06 03:32:33;;;;;;;0.10;0.10;;;14.10;99.90;;;;;;5029855;28;20573;-79
2022/10/06 03:35:01;;;;;;;0.00;0.00;;;14.10;99.90;;;;;;5033833;28;20180;-79
2022/10/06 03:37:29;;;;;;;0.00;0.00;;;14.20;99.90;;;;;;5042056;28;20225;-79
2022/10/06 03:39:57;;;;;;;0.05;0.05;;;14.30;99.90;;;;;;5033384;28;20598;-79
2022/10/06 03:42:25;;;;;;;0.00;0.00;;;14.40;99.90;;;;;;5034661;28;20294;-78
2022/10/06 03:44:53;;;;;;;0.00;0.00;;;14.40;99.90;;;;;;5029830;28;20713;-78
2022/10/06 03:47:21;;;;;;;0.00;0.00;;;14.40;99.90;;;;;;5035039;28;20269;-78
2022/10/06 03:49:51;;;;;;;0.00;0.00;;;14.40;99.90;;;;;;5029173;28;20227;-79
2022/10/06 03:52:18;;;;;;;0.00;0.00;;;14.40;99.90;;;;;;5030659;28;20674;-79
2022/10/06 03:54:52;;;;;;;0.10;0.10;;;14.40;99.90;;;;;;5028585;28;20194;-80
2022/10/06 03:57:21;;;;;;;0.10;0.10;;;14.40;99.90;;;;;;5035848;28;20226;-79
2022/10/06 03:59:50;;;;;;;0.00;0.00;;;14.40;99.90;;;;;;5034938;28;20227;-80
2022/10/06 04:02:18;;;;;;;0.10;0.10;;;14.40;99.90;;;;;;5073126;22;20230;-78
2022/10/06 04:04:46;;;;;;;0.00;0.00;;;14.40;99.90;;;;;;5034174;28;20203;-78
2022/10/06 04:07:15;;;;;;;0.00;0.00;;;14.50;99.90;;;;;;5041270;28;20203;-79
2022/10/06 04:12:29;;;;;;;0.00;0.00;;;14.40;99.90;;;;;;5047473;28;20545;-78
2022/10/06 04:14:57;;;;;;;0.00;0.00;;;14.40;99.90;;;;;;5052051;28;20269;-77
2022/10/06 04:17:27;;;;;;;0.10;0.10;;;14.50;99.90;;;;;;5042495;28;20230;-78
2022/10/06 04:19:55;;;;;;;0.00;0.00;;;14.40;99.90;;;;;;5046979;28;20215;-77
2022/10/06 04:22:25;;;;;;;0.00;0.00;;;14.40;99.90;;;;;;5054142;28;20294;-77
2022/10/06 04:24:53;;;;;;;0.00;0.00;;;14.40;99.90;;;;;;5064465;28;20218;-77
2022/10/06 04:27:27;;;;;;;0.00;0.00;;;14.40;99.90;;;;;;5041803;28;20211;-77
2022/10/06 04:30:11;;;;;;;0.00;0.00;;;14.40;99.90;;;;;;5041973;28;20269;-78
2022/10/06 04:32:40;;;;;;;0.10;0.10;;;14.40;99.90;;;;;;5058558;28;20218;-78
2022/10/06 04:35:09;;;;;;;0.00;0.00;;;14.40;99.90;;;;;;5069912;28;20277;-77
2022/10/06 04:37:39;;;;;;;0.10;0.10;;;14.40;99.90;;;;;;5047677;28;20198;-77
2022/10/06 04:40:08;;;;;;;0.10;0.10;;;14.50;99.90;;;;;;5051101;28;20198;-78
2022/10/06 04:42:37;;;;;;;0.10;0.10;;;14.50;99.90;;;;;;5065577;28;20218;-79
2022/10/06 04:45:09;;;;;;;0.00;0.00;;;14.40;99.90;;;;;;5048387;28;20203;-78
2022/10/06 04:47:39;;;;;;;0.00;0.00;;;14.40;99.90;;;;;;5043440;28;20203;-78
2022/10/06 04:50:08;;;;;;;0.00;0.00;;;14.40;99.90;;;;;;5043979;28;20203;-78
2022/10/06 04:52:36;;;;;;;0.08;0.08;;;14.50;99.90;;;;;;5041490;28;20237;-78
2022/10/06 04:55:07;;;;;;;0.00;0.00;;;14.50;99.90;;;;;;5039547;28;20225;-76
2022/10/06 04:57:35;;;;;;;0.00;0.00;;;14.50;99.90;;;;;;5060212;28;20214;-77
2022/10/06 05:02:51;;;;;;;0.00;0.00;;;14.50;99.90;;;;;;5042347;28;20365;-75
2022/10/06 05:05:19;;;;;;;0.00;0.00;;;14.50;99.90;;;;;;5037799;28;20195;-77
2022/10/06 05:07:47;;;;;;;0.00;0.00;;;14.60;99.90;;;;;;5047163;28;20199;-76
2022/10/06 05:10:18;;;;;;;0.03;0.03;;;14.70;99.90;;;;;;5040965;28;20293;-77
2022/10/06 05:12:46;;;;;;;0.00;0.00;;;14.70;99.90;;;;;;5039388;28;20249;-76
2022/10/06 05:15:15;;;;;;;0.00;0.00;;;14.70;99.90;;;;;;5035003;28;20219;-76
2022/10/06 05:17:43;;;;;;;0.00;0.00;;;14.80;99.90;;;;;;5032389;28;20281;-76
2022/10/06 05:20:12;;;;;;;0.10;0.10;;;14.80;99.90;;;;;;5033041;28;20206;-76
2022/10/06 05:22:40;;;;;;;0.00;0.00;;;14.80;99.90;;;;;;5032660;28;20642;-77
2022/10/06 05:25:09;;;;;;;0.00;0.00;;;14.70;99.90;;;;;;5030533;28;20191;-76
2022/10/06 05:27:38;;;;;;;0.00;0.00;;;14.80;99.90;;;;;;5037133;28;20557;-77
2022/10/06 05:30:07;;;;;;;0.00;0.00;;;14.80;99.90;;;;;;5039979;28;20198;-76
2022/10/06 05:32:35;;;;;;;0.00;0.00;;;14.80;99.90;;;;;;5041523;28;20218;-76
2022/10/06 05:35:05;;;;;;;0.00;0.00;;;14.80;99.90;;;;;;5045164;28;20222;-76
2022/10/06 05:37:33;;;;;;;0.00;0.00;;;14.80;99.90;;;;;;5052706;28;20210;-76
2022/10/06 05:40:01;;;;;;;0.10;0.10;;;14.80;99.90;;;;;;5049547;28;20198;-76
2022/10/06 05:42:29;;;;;;;0.10;0.10;;;14.80;99.90;;;;;;5035000;28;20222;-76
2022/10/06 05:45:00;;;;;;;0.00;0.00;;;14.90;99.90;;;;;;5049724;28;20198;-76
2022/10/06 05:47:29;;;;;;;0.00;0.00;;;14.90;99.90;;;;;;5036844;28;20211;-77
2022/10/06 05:49:56;;;;;;;0.00;0.00;;;14.90;99.90;;;;;;5026713;28;20285;-76
2022/10/06 05:52:25;;;;;;;0.00;0.00;;;14.90;99.90;;;;;;5029822;28;20230;-77
2022/10/06 05:54:53;;;;;;;0.10;0.10;;;14.90;99.90;;;;;;5036389;28;20254;-75
2022/10/06 05:57:21;;;;;;;0.00;0.00;;;14.90;99.90;;;;;;5040255;28;20245;-76
2022/10/06 05:59:49;;;;;;;0.00;0.00;;;14.90;99.90;;;;;;5031155;28;20199;-76
2022/10/06 06:02:19;;;;;;;0.00;0.00;;;14.90;99.90;;;;;;5028824;28;20222;-76
2022/10/06 06:04:46;;;;;;;0.00;0.00;;;14.90;99.90;;;;;;5030459;28;20234;-76
2022/10/06 06:07:14;;;;;;;0.00;0.00;;;14.90;99.90;;;;;;5031558;28;20226;-75
2022/10/06 06:09:44;;;;;;;0.10;0.10;;;14.90;99.90;;;;;;5030182;28;20264;-76
2022/10/06 06:12:13;;;;;;;0.00;0.00;;;15.00;99.90;;;;;;5031145;28;20221;-76
2022/10/06 06:17:38;;;;;;;0.05;0.05;;;15.00;99.90;;;;;;5029188;28;20203;-76
2022/10/06 06:20:07;;;;;;;0.10;0.10;;;15.00;99.90;;;;;;5029819;28;20206;-76
2022/10/06 06:22:35;;;;;;;0.00;0.00;;;15.10;99.90;;;;;;5037750;28;20225;-76
2022/10/06 06:25:06;;;;;;;0.00;0.00;;;15.20;99.90;;;;;;5034934;28;20291;-77
2022/10/06 06:27:34;;;;;;;0.00;0.00;;;15.20;99.90;;;;;;5036025;28;20261;-76
2022/10/06 06:30:04;;;;;;;0.00;0.00;;;15.20;99.90;;;;;;5029615;28;20252;-77
2022/10/06 06:32:32;;;;;;;0.00;0.00;;;15.20;99.90;;;;;;5026844;28;20542;-76
2022/10/06 06:35:03;;;;;;;0.00;0.00;;;15.20;99.90;;;;;;5029079;28;20273;-76
2022/10/06 06:37:32;;;;;;;0.00;0.00;;;15.20;99.90;;;;;;5027726;28;20564;-76
2022/10/06 06:40:01;;;;;;;0.00;0.00;;;15.20;99.90;;;;;;5029803;28;20199;-76
2022/10/06 06:42:32;;;;;;;0.10;0.10;;;15.20;99.90;;;;;;5030321;28;20590;-76
2022/10/06 06:45:18;;;;;;;0.00;0.00;;;15.30;99.90;;;;;;5028584;28;20257;-76
2022/10/06 06:47:59;;;;;;;0.00;0.00;;;15.30;99.90;;;;;;5027826;28;20210;-76
2022/10/06 06:50:28;;;;;;;0.00;0.00;;;15.30;99.90;;;;;;5029491;28;20211;-76
2022/10/06 06:52:56;;;;;;;0.00;0.00;;;15.30;99.90;;;;;;5029137;28;20231;-76
2022/10/06 06:55:24;;;;;;;0.00;0.00;;;15.30;99.90;;;;;;5029665;28;20223;-77
2022/10/06 06:57:53;;;;;;;0.00;0.00;;;15.40;99.90;;;;;;5028985;28;20198;-76
2022/10/06 07:00:22;;;;;;;0.00;0.00;;;15.40;99.90;;;;;;5028573;28;20202;-76
2022/10/06 07:02:57;;;;;;;0.00;0.00;;;15.40;99.90;;;;;;5028913;28;20231;-76
2022/10/06 07:05:25;;;;;;;0.00;0.00;;;15.40;99.90;;;;;;5028971;28;20187;-76
2022/10/06 07:07:54;;;;;;;0.00;0.00;;;15.50;99.90;;;;;;5030534;28;20203;-76
2022/10/06 07:10:26;;;;;;;0.00;0.00;;;15.40;99.90;;;;;;5029405;28;20224;-77
2022/10/06 07:12:54;;;;;;;0.00;0.00;;;15.50;99.90;;;;;;5038301;28;20227;-76
2022/10/06 07:26:30;;;;;;;0.00;0.00;;;15.10;99.90;;;;;;5040038;28;20204;-76
2022/10/06 07:28:59;;;;;;;0.00;0.00;;;14.90;99.90;;;;;;5027540;28;20285;-76
2022/10/06 07:31:32;;;;;;;0.10;0.10;;;14.70;99.90;;;;;;5032877;28;20249;-76
2022/10/06 07:34:01;;;;;;;0.00;0.00;;;14.60;99.90;;;;;;5013641;28;20223;-76
2022/10/06 07:36:29;;;;;;;0.10;0.10;;;14.40;99.90;;;;;;5029913;28;20253;-77
2022/10/06 07:38:58;;;;;;;0.00;0.00;;;14.40;99.90;;;;;;5033692;28;20753;-78
2022/10/06 07:41:28;;;;;;;0.10;0.10;;;14.30;99.90;;;;;;5032301;28;20339;-76
2022/10/06 07:44:03;;;;;;;0.03;0.03;;;14.20;99.90;;;;;;5033538;28;20209;-76
2022/10/06 07:46:36;;;;;;;0.10;0.10;;;14.00;99.90;;;;;;5033160;28;20199;-78
2022/10/06 07:49:09;;;;;;;0.00;0.00;;;14.00;99.90;;;;;;5032611;28;20623;-76
2022/10/06 07:51:37;;;;;;;0.10;0.10;;;14.00;99.90;;;;;;5033520;28;20305;-76
2022/10/06 07:54:07;;;;;;;0.00;0.00;;;14.00;99.90;;;;;;5032083;28;20207;-76
2022/10/06 07:56:58;;;;;;;0.10;0.10;;;13.90;99.90;;;;;;5027972;28;20210;-76
2022/10/06 07:59:26;;;;;;;0.10;0.10;;;13.60;99.90;;;;;;5032837;28;20234;-76
2022/10/06 08:01:54;;;;;;;0.00;0.00;;;13.50;99.90;;;;;;5034195;28;20659;-77
2022/10/06 08:04:22;;;;;;;0.10;0.10;;;13.50;99.90;;;;;;5033319;28;20237;-77
2022/10/06 08:06:50;;;;;;;0.05;0.05;;;13.40;99.90;;;;;;5033084;28;20221;-77
2022/10/06 08:09:21;;;;;;;0.10;0.10;;;13.30;99.90;;;;;;5032228;28;20211;-77
2022/10/06 08:11:48;;;;;;;0.10;0.10;;;13.20;99.90;;;;;;5033816;28;20619;-76
2022/10/06 08:14:16;;;;;;;0.00;0.00;;;13.20;99.90;;;;;;5032313;28;20534;-76
2022/10/06 08:16:44;;;;;;;0.00;0.00;;;13.30;99.90;;;;;;5030934;28;20767;-77
2022/10/06 08:19:13;;;;;;;0.00;0.00;;;13.40;99.90;;;;;;5030768;28;20206;-76
2022/10/06 08:21:41;;;;;;;0.10;0.10;;;13.50;99.90;;;;;;5033895;28;20294;-77
2022/10/06 08:24:09;;;;;;;0.10;0.10;;;13.50;99.90;;;;;;5033655;28;20194;-76
2022/10/06 08:26:39;;;;;;;0.00;0.00;;;13.60;99.90;;;;;;5032653;28;20203;-77
2022/10/06 08:29:06;;;;;;;0.08;0.08;;;13.60;99.90;;;;;;5032605;28;20202;-76
2022/10/06 08:31:34;;;;;;;0.00;0.00;;;13.60;99.90;;;;;;5031654;28;20227;-76
2022/10/06 08:34:02;;;;;;;0.00;0.00;;;13.50;99.90;;;;;;5032011;28;20625;-76
2022/10/06 08:36:36;;;;;;;0.08;0.08;;;13.40;99.90;;;;;;5029709;28;20310;-76
2022/10/06 08:39:06;;;;;;;0.00;0.00;;;13.40;99.90;;;;;;5032565;28;20265;-76
2022/10/06 08:41:42;;;;;;;0.00;0.00;;;13.40;99.90;;;;;;5031332;28;20227;-76
2022/10/06 08:44:24;;;;;;;0.00;0.00;;;13.50;99.90;;;;;;5033503;28;20194;-76
2022/10/06 08:46:59;;;;;;;0.00;0.00;;;13.60;99.90;;;;;;5032072;28;20724;-76
2022/10/06 08:49:33;;;;;;;0.10;0.10;;;13.70;99.90;;;;;;5034466;28;20281;-76
2022/10/06 08:52:16;;;;;;;0.00;0.00;;;13.80;99.90;;;;;;5040317;28;20219;-76
2022/10/06 08:54:52;;;;;;;0.00;0.00;;;13.80;99.90;;;;;;5034676;28;20215;-76
2022/10/06 08:57:30;;;;;;;0.00;0.00;;;13.90;99.90;;;;;;5033330;28;20313;-77
2022/10/06 08:59:59;;;;;;;0.00;0.00;;;13.90;99.90;;;;;;5033788;28;20265;-76
2022/10/06 09:02:30;;;;;;;0.00;0.00;;;14.00;99.90;;;;;;5033714;28;20222;-76
2022/10/06 09:05:01;;;;;;;0.00;0.00;;;14.20;99.90;;;;;;5033477;28;20195;-76
2022/10/06 09:07:38;;;;;;;0.00;0.00;;;14.40;99.90;;;;;;5032264;28;20206;-77
2022/10/06 09:10:23;;;;;;;0.03;0.03;;;14.50;99.90;;;;;;5032611;28;20211;-78
2022/10/06 09:12:57;;;;;;;0.00;0.00;;;14.60;99.90;;;;;;5032309;28;20226;-76
2022/10/06 09:15:33;;;;;;;0.00;0.00;;;14.70;99.90;;;;;;5032123;28;20195;-76
2022/10/06 09:18:09;;;;;;;0.00;0.00;;;14.90;99.90;;;;;;5031856;28;20209;-77
2022/10/06 09:20:42;;;;;;;0.00;0.00;;;15.00;99.90;;;;;;5035309;28;20186;-77
2022/10/06 09:23:15;;;;;;;0.00;0.00;;;15.10;99.90;;;;;;5039479;28;20199;-76
2022/10/06 09:25:43;;;;;;;0.10;0.10;;;15.20;99.90;;;;;;5036656;28;20210;-76
2022/10/06 09:28:15;;;;;;;0.00;0.00;;;15.30;99.90;;;;;;5037099;28;20736;-77
2022/10/06 09:30:43;;;;;;;0.00;0.00;;;15.30;99.90;;;;;;5036092;28;20195;-76
2022/10/06 09:33:20;;;;;;;0.00;0.00;;;15.40;99.90;;;;;;5037157;28;20210;-77
2022/10/06 09:36:08;;;;;;;0.00;0.00;;;15.50;99.90;;;;;;5035643;28;20590;-79
2022/10/06 09:38:52;;;;;;;0.00;0.00;;;15.50;99.90;;;;;;5038473;28;20195;-76
2022/10/06 09:41:24;;;;;;;0.00;0.00;;;15.60;99.90;;;;;;5036203;28;20231;-77
2022/10/06 09:43:59;;;;;;;0.05;0.05;;;15.70;99.90;;;;;;5035990;28;20203;-76
2022/10/06 09:46:33;;;;;;;0.00;0.00;;;15.80;99.90;;;;;;5033638;28;20195;-77
2022/10/06 09:49:19;;;;;;;0.00;0.00;;;15.90;99.90;;;;;;5026314;28;20218;-76
2022/10/06 09:52:10;;;;;;;0.00;0.00;;;16.00;99.90;;;;;;5028468;28;20277;-76
2022/10/06 09:54:40;;;;;;;0.00;0.00;;;16.20;99.90;;;;;;5035957;28;20199;-76
2022/10/06 09:57:14;;;;;;;0.00;0.00;;;16.20;99.90;;;;;;5035442;28;20233;-77
2022/10/06 09:59:45;;;;;;;0.10;0.10;;;16.20;99.90;;;;;;5033178;28;20207;-77
2022/10/06 10:02:35;;;;;;;0.00;0.00;;;16.20;99.90;;;;;;5057473;22;20242;-79
2022/10/06 10:05:06;;;;;;;0.00;0.00;;;16.20;99.90;;;;;;5051312;28;20645;-80
2022/10/06 10:07:36;;;;;;;0.00;0.00;;;16.20;99.90;;;;;;5052034;28;20566;-79
2022/10/06 10:10:20;;;;;;;0.00;0.00;;;16.20;99.90;;;;;;5051405;28;20240;-81
2022/10/06 10:12:51;;;;;;;0.00;0.00;;;16.20;99.90;;;;;;5036770;28;20218;-80
2022/10/06 10:15:51;;;;;;;0.00;0.00;;;16.10;99.90;;;;;;5052235;28;20672;-79
2022/10/06 10:18:25;;;;;;;0.00;0.00;;;15.90;99.90;;;;;;5051847;28;20190;-79
2022/10/06 10:20:56;;;;;;;0.10;0.10;;;15.90;99.90;;;;;;5052119;28;20558;-79
2022/10/06 10:23:29;;;;;;;0.00;0.00;;;16.00;99.90;;;;;;5052166;28;20252;-79
2022/10/06 10:26:11;;;;;;;0.00;0.00;;;16.00;99.90;;;;;;5052100;28;20282;-79
2022/10/06 10:29:04;;;;;;;0.00;0.00;;;16.10;99.90;;;;;;5051133;28;20668;-78
2022/10/06 10:31:43;;;;;;;0.00;0.00;;;16.10;99.90;;;;;;5033345;28;20900;-80
2022/10/06 10:34:26;;;;;;;0.00;0.00;;;16.20;99.90;;;;;;5052449;28;20665;-79
2022/10/06 10:36:58;;;;;;;0.00;0.00;;;16.20;99.90;;;;;;5052606;28;20225;-79
2022/10/06 10:39:31;;;;;;;0.00;0.00;;;16.10;99.90;;;;;;5052156;28;20198;-78
2022/10/06 10:42:02;;;;;;;0.00;0.00;;;16.10;99.90;;;;;;5051399;28;20214;-79
2022/10/06 10:44:34;;;;;;;0.00;0.00;;;16.10;99.90;;;;;;5051360;28;20198;-79
2022/10/06 10:47:14;;;;;;;0.00;0.00;;;16.30;99.90;;;;;;5051940;28;20194;-78
2022/10/06 10:49:45;;;;;;;0.00;0.00;;;16.40;99.90;;;;;;5051401;28;20191;-79
2022/10/06 10:52:17;;;;;;;0.00;0.00;;;16.40;99.90;;;;;;5051041;28;20636;-78
2022/10/06 10:54:52;;;;;;;0.00;0.00;;;16.40;99.90;;;;;;5051696;28;20190;-78
2022/10/06 10:57:24;;;;;;;0.00;0.00;;;16.40;99.90;;;;;;5051879;28;20205;-78
2022/10/06 10:59:58;;;;;;;0.00;0.00;;;16.60;99.90;;;;;;5053101;28;20200;-79
2022/10/06 11:02:28;;;;;;;0.00;0.00;;;16.60;99.90;;;;;;5053346;28;20221;-79
2022/10/06 11:05:01;;;;;;;0.10;0.10;;;16.70;99.90;;;;;;5056925;28;20202;-79
2022/10/06 11:07:34;;;;;;;0.00;0.00;;;16.80;99.90;;;;;;5056258;28;20256;-78
2022/10/06 11:10:11;;;;;;;0.00;0.00;;;16.90;99.90;;;;;;5056695;28;20229;-78
2022/10/06 11:13:00;;;;;;;0.00;0.00;;;17.00;99.90;;;;;;5058176;28;20271;-79
2022/10/06 11:15:44;;;;;;;0.00;0.00;;;17.10;99.90;;;;;;5059196;28;20260;-80
2022/10/06 11:18:24;;;;;;;0.00;0.00;;;17.30;99.90;;;;;;5056011;28;20268;-79
2022/10/06 11:20:57;;;;;;;0.00;0.00;;;17.40;99.90;;;;;;5058716;28;20202;-80
2022/10/06 11:23:39;;;;;;;0.00;0.00;;;17.70;99.90;;;;;;5057818;28;20233;-81
2022/10/06 11:26:23;;;;;;;0.00;0.00;;;17.90;99.90;;;;;;5055691;28;20202;-81
2022/10/06 11:28:58;;;;;;;0.00;0.00;;;17.90;99.90;;;;;;5055181;28;20750;-79
2022/10/06 11:31:34;;;;;;;0.00;0.00;;;18.20;99.90;;;;;;5055637;28;20244;-79
2022/10/06 11:34:05;;;;;;;0.00;0.00;;;18.20;99.90;;;;;;5059939;28;20202;-80
2022/10/06 11:36:43;;;;;;;0.00;0.00;;;18.40;99.90;;;;;;5057299;28;20205;-80
2022/10/06 11:39:21;;;;;;;0.00;0.00;;;18.60;99.90;;;;;;5056782;28;20214;-80
2022/10/06 11:41:54;;;;;;;0.00;0.00;;;18.70;99.90;;;;;;5056606;28;20248;-80
2022/10/06 11:44:30;;;;;;;0.00;0.00;;;18.80;99.90;;;;;;5056714;28;20205;-77
2022/10/06 11:47:02;;;;;;;0.00;0.00;;;19.20;99.90;;;;;;5050985;28;20722;-80
2022/10/06 11:49:50;;;;;;;0.00;0.00;;;19.40;99.90;;;;;;5059579;28;20206;-80
2022/10/06 11:52:45;;;;;;;0.00;0.00;;;19.70;99.90;;;;;;5053510;28;20234;-79
2022/10/06 11:55:19;;;;;;;0.00;0.00;;;19.80;99.90;;;;;;5056819;28;20206;-79
2022/10/06 11:58:06;;;;;;;0.00;0.00;;;19.70;99.90;;;;;;5057114;28;20703;-79
2022/10/06 12:00:53;;;;;;;0.00;0.00;;;19.90;99.90;;;;;;5049147;28;20747;-79
2022/10/06 12:03:48;;;;;;;0.00;0.00;;;19.80;99.90;;;;;;5055638;28;20217;-80
2022/10/06 12:06:53;;;;;;;0.00;0.00;;;19.80;99.90;;;;;;5051013;28;20202;-79
2022/10/06 12:09:50;;;;;;;0.00;0.00;;;20.30;99.90;;;;;;5032822;28;20202;-80
2022/10/06 12:12:43;;;;;;;0.00;0.00;;;20.10;99.90;;;;;;5047416;28;20312;-80
2022/10/06 12:16:12;;;;;;;0.00;0.00;;;20.10;99.90;;;;;;5051107;28;20210;-78
2022/10/06 12:19:15;;;;;;;0.00;0.00;;;20.20;99.90;;;;;;5042444;28;20232;-79
2022/10/06 12:21:52;;;;;;;0.00;0.00;;;20.20;99.90;;;;;;5054316;28;20222;-80
2022/10/06 12:24:32;;;;;;;0.00;0.00;;;20.50;99.90;;;;;;5052793;28;20239;-78
2022/10/06 12:27:26;;;;;;;0.00;0.00;;;20.40;99.90;;;;;;5053572;28;20198;-78
2022/10/06 12:30:01;;;;;;;0.00;0.00;;;20.50;99.90;;;;;;5053784;28;20194;-78
2022/10/06 12:32:46;;;;;;;0.00;0.00;;;20.80;99.90;;;;;;5054513;28;20706;-78
2022/10/06 12:35:23;;;;;;;0.00;0.00;;;20.80;99.90;;;;;;5051328;28;20206;-79
2022/10/06 12:37:52;;;;;;;0.00;0.00;;;21.10;99.90;;;;;;5054164;28;20558;-80
2022/10/06 12:40:46;;;;;;;0.00;0.00;;;21.20;99.90;;;;;;5059225;28;20191;-80
2022/10/06 12:43:53;;;;;;;0.00;0.00;;;21.40;99.90;;;;;;5051623;28;20605;-78
2022/10/06 12:46:26;;;;;;;0.00;0.00;;;21.50;99.90;;;;;;5044639;28;20219;-78
2022/10/06 12:49:11;;;;;;;0.00;0.00;;;21.60;99.90;;;;;;5053797;28;20198;-79
2022/10/06 12:51:40;;;;;;;0.00;0.00;;;21.80;99.90;;;;;;5052390;28;20223;-80
2022/10/06 12:54:18;;;;;;;0.00;0.00;;;21.90;99.90;;;;;;5056287;28;20206;-79
2022/10/06 12:56:58;;;;;;;0.00;0.00;;;22.00;99.90;;;;;;5053861;28;20201;-79
2022/10/06 12:59:28;;;;;;;0.00;0.00;;;21.90;99.90;;;;;;5038703;28;20222;-79
2022/10/06 13:01:58;;;;;;;0.00;0.00;;;21.40;99.90;;;;;;5053644;28;20288;-79
2022/10/06 13:04:35;;;;;;;0.00;0.00;;;21.40;99.90;;;;;;5048505;28;20611;-78
2022/10/06 13:07:12;;;;;;;0.00;0.00;;;21.50;99.90;;;;;;5051694;28;20251;-78
2022/10/06 13:09:41;;;;;;;0.00;0.00;;;21.80;99.90;;;;;;5050913;28;20194;-79
2022/10/06 13:12:26;;;;;;;0.00;0.00;;;22.10;99.90;;;;;;5053296;28;20214;-79
2022/10/06 13:15:27;;;;;;;0.00;0.00;;;22.30;99.80;;;;;;5053710;28;20202;-77
2022/10/06 13:17:58;;;;;;;0.00;0.00;;;22.30;98.90;;;;;;4998941;28;20243;-78
2022/10/06 13:20:35;;;;;;;0.00;0.00;;;22.10;98.60;;;;;;5041058;28;20223;-79
2022/10/06 13:23:21;;;;;;;0.00;0.00;;;22.00;98.50;;;;;;5050459;28;20222;-79
2022/10/06 13:25:53;;;;;;;0.00;0.00;;;21.80;98.90;;;;;;5051947;28;20194;-79
2022/10/06 13:28:25;;;;;;;0.00;0.00;;;21.80;98.80;;;;;;5051271;28;20263;-78
2022/10/06 13:30:55;;;;;;;0.00;0.00;;;22.20;99.30;;;;;;5044391;28;20202;-79
2022/10/06 13:33:25;;;;;;;0.00;0.00;;;22.40;99.00;;;;;;5059455;28;20217;-79
2022/10/06 13:35:54;;;;;;;0.00;0.00;;;22.40;98.30;;;;;;5052503;28;20669;-78